Search for airport 
image banner adimage banner adimage banner ad
image banner ad

SBPA - Salgado Filho

Located in Porto Alegre, Brazil

ICAO - SBPA, IATA - POA

Data provided by Airmate  

General information

Coordinates: S29°59'38" W51°10'16"
Elevation is 13 feet MSL.
Magnetic variation is -17° East
View others Airports in Rio Grande do Sul

Operational data

Special qualification required
Current time UTC:
Current local time:
Weather
METAR: SBPA 250000Z 11003KT CAVOK 18/15 Q1015
TAF: TAF SBPA 252100Z 2500/2524 32005KT 8000 NSC TN15/2509Z TX29/2518Z BECMG 2500/2502 8000 NSC BECMG 2513/2515 9999 SCT020 RMK PDZ
View NOTAMs / SUP AIP / TFR affecting this airport [VIEW]
Communications frequencies: [VIEW]

Runways:

RWY identifierQFULength (ft)Width (ft)SurfaceLDA (ft)
1191°7480148ASP
29271°7480148
286496148UNK

Airport contact information

Address: Porto Alegre Brazil

Other aviation service providers

Flight schools

Aerosul

Aerosul

Satellite view of SBPA